Time;durP1;ratioP1;P1;durP2;ratioP2;P2;SDS_P1;SDS_P2;PMS_P1;PMS_P2;Temp;Humidity;BMP_temperature;BMP_pressure;BME280_temperature;BME280_humidity;BME280_pressure;Samples;Min_cycle;Max_cycle;Signal;HPM_P1;HPM_P2
2022/01/05 00:02:25;;;;;;;15.07;14.38;;;6.70;89.50;;;;;;5033605;28;20263;-73
2022/01/05 00:04:53;;;;;;;14.20;13.50;;;6.80;89.60;;;;;;5033215;28;20212;-73
2022/01/05 00:07:21;;;;;;;14.38;13.77;;;6.70;90.00;;;;;;5033155;28;20201;-73
2022/01/05 00:09:48;;;;;;;13.90;13.38;;;6.70;90.00;;;;;;5032972;28;20785;-73
2022/01/05 00:12:17;;;;;;;14.30;13.70;;;6.70;89.60;;;;;;5033373;28;20233;-73
2022/01/05 00:14:44;;;;;;;13.60;13.10;;;6.80;89.30;;;;;;5033007;28;20201;-73
2022/01/05 00:17:11;;;;;;;14.27;13.68;;;6.80;89.30;;;;;;5033214;28;20300;-73
2022/01/05 00:19:39;;;;;;;14.68;14.07;;;6.80;89.80;;;;;;5032799;28;20581;-73
2022/01/05 00:22:06;;;;;;;14.93;14.32;;;6.80;89.00;;;;;;5033208;28;20566;-73
2022/01/05 00:24:36;;;;;;;14.57;13.98;;;6.90;88.90;;;;;;5033062;28;20199;-73
2022/01/05 00:27:03;;;;;;;14.10;13.50;;;6.90;88.40;;;;;;5032994;28;20197;-73
2022/01/05 00:29:30;;;;;;;14.88;14.18;;;6.80;88.60;;;;;;5032696;28;20220;-73
2022/01/05 00:31:57;;;;;;;14.90;14.23;;;6.70;88.80;;;;;;5032734;28;20205;-73
2022/01/05 00:34:24;;;;;;;14.68;14.07;;;6.80;88.60;;;;;;5032871;28;20654;-73
2022/01/05 00:36:51;;;;;;;14.23;13.63;;;6.70;88.60;;;;;;5032663;28;20717;-73
2022/01/05 00:39:19;;;;;;;14.63;13.95;;;6.70;88.90;;;;;;5032571;28;20221;-73
2022/01/05 00:41:48;;;;;;;14.60;13.90;;;6.90;88.30;;;;;;5032949;28;20199;-73
2022/01/05 00:44:15;;;;;;;16.45;15.52;;;6.80;88.40;;;;;;5032781;28;20201;-73
2022/01/05 00:46:41;;;;;;;15.32;14.63;;;6.80;89.10;;;;;;5032626;28;20224;-73
2022/01/05 00:49:08;;;;;;;14.25;13.65;;;6.80;88.60;;;;;;5032583;28;20714;-73
2022/01/05 00:51:35;;;;;;;13.82;13.23;;;6.80;88.70;;;;;;5032434;28;20289;-73
2022/01/05 00:54:02;;;;;;;14.27;13.57;;;6.70;88.90;;;;;;5032702;28;20566;-73
2022/01/05 00:56:31;;;;;;;14.63;14.00;;;6.70;88.40;;;;;;5032554;28;20221;-73
2022/01/05 00:58:59;;;;;;;14.20;13.60;;;6.70;88.90;;;;;;5033295;28;20217;-73
2022/01/05 01:01:26;;;;;;;14.40;13.80;;;6.70;89.10;;;;;;5036691;28;20197;-73
2022/01/05 01:03:53;;;;;;;14.10;13.50;;;6.70;88.20;;;;;;5036887;28;20197;-73
2022/01/05 01:06:20;;;;;;;14.35;13.40;;;6.60;88.50;;;;;;5036604;28;20197;-73
2022/01/05 01:08:49;;;;;;;13.93;13.40;;;6.60;88.50;;;;;;5036663;28;20283;-73
2022/01/05 01:11:15;;;;;;;14.80;14.20;;;6.70;88.50;;;;;;5036416;28;20196;-73
2022/01/05 01:13:43;;;;;;;14.23;13.63;;;6.70;87.80;;;;;;5036556;28;20201;-73
2022/01/05 01:16:11;;;;;;;13.70;13.20;;;6.70;88.30;;;;;;5036413;28;20221;-73
2022/01/05 01:18:38;;;;;;;14.23;13.63;;;6.70;88.10;;;;;;5036420;28;20285;-73
2022/01/05 01:21:05;;;;;;;13.40;12.90;;;6.70;88.30;;;;;;5036401;28;20296;-73
2022/01/05 01:23:33;;;;;;;13.57;13.02;;;6.60;88.50;;;;;;5036387;28;20566;-73
2022/01/05 01:26:00;;;;;;;14.30;13.60;;;6.70;88.80;;;;;;5036233;28;20201;-73
2022/01/05 01:28:26;;;;;;;13.70;13.20;;;6.70;88.20;;;;;;5036182;28;20284;-73
2022/01/05 01:30:53;;;;;;;13.70;13.20;;;6.70;87.90;;;;;;5036077;28;20229;-73
2022/01/05 01:33:22;;;;;;;13.80;13.30;;;6.70;87.70;;;;;;5036019;28;20561;-73
2022/01/05 01:35:49;;;;;;;14.13;13.52;;;6.70;87.90;;;;;;5036006;28;20225;-73
2022/01/05 01:38:17;;;;;;;14.27;13.60;;;6.70;87.60;;;;;;5036289;28;20201;-73
2022/01/05 01:40:44;;;;;;;13.70;13.13;;;6.70;88.10;;;;;;5035957;28;20550;-73
2022/01/05 01:43:10;;;;;;;14.00;13.40;;;6.60;89.20;;;;;;5036054;28;20593;-73
2022/01/05 01:45:37;;;;;;;14.60;13.90;;;6.70;88.40;;;;;;5035882;28;20557;-73
2022/01/05 01:48:05;;;;;;;13.75;13.15;;;6.70;88.20;;;;;;5035611;28;20197;-73
2022/01/05 01:50:33;;;;;;;14.00;13.40;;;6.60;88.30;;;;;;5035778;28;20303;-73
2022/01/05 01:53:00;;;;;;;14.60;14.00;;;6.60;88.40;;;;;;5035799;28;20201;-73
2022/01/05 01:55:27;;;;;;;14.13;13.52;;;6.70;88.20;;;;;;5035732;28;20197;-73
2022/01/05 01:57:54;;;;;;;14.00;13.40;;;6.70;88.20;;;;;;5035631;28;20197;-73
2022/01/05 02:00:22;;;;;;;13.65;13.05;;;6.70;89.20;;;;;;5035454;28;20734;-73
2022/01/05 02:02:49;;;;;;;14.38;13.77;;;6.90;88.20;;;;;;5035640;28;20201;-73
2022/01/05 02:05:17;;;;;;;14.80;14.20;;;6.90;87.60;;;;;;5035509;28;20201;-73
2022/01/05 02:07:45;;;;;;;14.60;14.00;;;6.80;87.60;;;;;;5035485;28;20203;-73
2022/01/05 02:10:12;;;;;;;14.57;13.98;;;6.70;87.80;;;;;;5034518;28;20214;-73
2022/01/05 02:12:40;;;;;;;14.88;14.18;;;6.90;88.00;;;;;;5035017;28;20558;-73
2022/01/05 02:15:08;;;;;;;14.13;13.52;;;6.90;87.70;;;;;;5035421;28;20238;-73
2022/01/05 02:17:46;;;;;;;14.25;13.65;;;6.90;87.70;;;;;;5035260;28;20224;-73
2022/01/05 02:20:16;;;;;;;14.52;13.93;;;6.80;88.70;;;;;;5035127;28;20221;-73
2022/01/05 02:22:44;;;;;;;14.60;14.00;;;6.90;88.50;;;;;;5035246;28;20213;-73
2022/01/05 02:25:12;;;;;;;14.43;13.82;;;6.90;87.90;;;;;;5035255;28;20197;-73
2022/01/05 02:27:40;;;;;;;14.90;14.30;;;7.00;87.40;;;;;;5035206;28;20682;-73
2022/01/05 02:30:09;;;;;;;14.25;13.65;;;7.00;87.20;;;;;;5034863;28;20228;-73
2022/01/05 02:32:36;;;;;;;14.20;13.60;;;7.10;87.20;;;;;;5035031;28;20201;-73
2022/01/05 02:35:03;;;;;;;14.63;14.02;;;7.00;88.60;;;;;;5035112;28;20197;-73
2022/01/05 02:37:30;;;;;;;14.90;14.30;;;6.90;88.20;;;;;;5034957;28;20316;-73
2022/01/05 02:39:58;;;;;;;14.60;14.00;;;7.10;87.60;;;;;;5034966;28;20256;-73
2022/01/05 02:42:26;;;;;;;14.15;13.55;;;7.00;87.00;;;;;;5034907;28;20284;-73
2022/01/05 02:44:53;;;;;;;15.05;14.45;;;7.00;87.30;;;;;;5034812;28;20198;-73
2022/01/05 02:47:20;;;;;;;14.13;13.55;;;7.00;87.20;;;;;;5034592;28;20203;-73
2022/01/05 02:49:46;;;;;;;14.50;13.90;;;7.00;87.50;;;;;;5034571;28;20253;-73
2022/01/05 02:52:14;;;;;;;14.60;14.00;;;7.00;87.60;;;;;;5034681;28;20388;-73
2022/01/05 02:54:41;;;;;;;15.02;14.40;;;7.10;87.70;;;;;;5034643;28;20251;-73
2022/01/05 02:57:10;;;;;;;14.80;14.20;;;7.10;87.50;;;;;;5034589;28;20316;-73
2022/01/05 02:59:37;;;;;;;14.18;13.55;;;7.00;87.90;;;;;;5034398;28;20708;-73
2022/01/05 03:02:04;;;;;;;13.90;13.30;;;7.00;88.00;;;;;;5034501;28;20241;-73
2022/01/05 03:04:31;;;;;;;14.18;13.57;;;7.00;88.70;;;;;;5034409;28;20200;-73
2022/01/05 03:06:58;;;;;;;13.60;13.00;;;7.00;88.90;;;;;;5034428;28;20685;-72
2022/01/05 03:09:25;;;;;;;14.05;13.45;;;6.90;89.40;;;;;;5034078;28;20585;-72
2022/01/05 03:11:52;;;;;;;14.13;13.52;;;6.90;89.20;;;;;;5034437;28;20202;-73
2022/01/05 03:14:20;;;;;;;14.10;13.50;;;6.90;89.60;;;;;;5034358;28;20288;-73
2022/01/05 03:16:49;;;;;;;14.00;13.40;;;6.80;89.50;;;;;;5034097;28;20224;-73
2022/01/05 03:19:16;;;;;;;14.35;13.75;;;6.70;89.70;;;;;;5033905;28;20221;-72
2022/01/05 03:21:43;;;;;;;14.25;13.65;;;6.70;89.90;;;;;;5033915;28;20197;-73
2022/01/05 03:24:10;;;;;;;14.15;13.55;;;6.70;89.80;;;;;;5034156;28;20639;-73
2022/01/05 03:26:36;;;;;;;14.00;13.40;;;6.70;89.70;;;;;;5033990;28;20205;-73
2022/01/05 03:29:03;;;;;;;14.85;14.25;;;6.80;89.80;;;;;;5033948;28;20308;-73
2022/01/05 03:31:32;;;;;;;14.15;13.35;;;6.80;89.60;;;;;;5033720;28;20695;-73
2022/01/05 03:33:59;;;;;;;14.40;13.80;;;6.80;89.90;;;;;;5033860;28;20201;-73
2022/01/05 03:36:26;;;;;;;14.07;13.48;;;6.80;89.20;;;;;;5033864;28;20403;-73
2022/01/05 03:38:53;;;;;;;14.40;13.80;;;6.70;89.10;;;;;;5033790;28;20217;-73
2022/01/05 03:41:20;;;;;;;14.75;14.15;;;6.70;89.00;;;;;;5033672;28;20204;-73
2022/01/05 03:43:47;;;;;;;14.10;13.50;;;6.70;88.80;;;;;;5033847;28;20197;-73
2022/01/05 03:46:14;;;;;;;15.00;14.40;;;6.70;89.00;;;;;;5033682;28;20284;-72
2022/01/05 03:48:42;;;;;;;13.90;13.30;;;6.70;88.90;;;;;;5033293;28;20197;-73
2022/01/05 03:51:09;;;;;;;13.95;13.35;;;6.70;88.40;;;;;;5033511;28;20208;-72
2022/01/05 03:53:36;;;;;;;14.40;13.80;;;6.60;89.00;;;;;;5033440;28;20229;-73
2022/01/05 03:56:04;;;;;;;14.55;13.95;;;6.70;88.40;;;;;;5033401;28;20197;-73
2022/01/05 03:58:30;;;;;;;15.20;14.60;;;6.70;88.10;;;;;;5033238;28;20215;-73
2022/01/05 04:00:57;;;;;;;15.93;15.23;;;6.70;88.00;;;;;;5033253;28;20207;-73
2022/01/05 04:03:24;;;;;;;15.70;14.90;;;6.80;88.20;;;;;;5033244;28;20193;-73
2022/01/05 04:05:52;;;;;;;15.00;14.40;;;6.80;87.90;;;;;;5033290;28;20208;-73
2022/01/05 04:08:19;;;;;;;16.20;15.50;;;6.70;87.90;;;;;;5041561;22;20227;-73
2022/01/05 04:10:46;;;;;;;15.55;14.85;;;6.70;88.40;;;;;;5033024;28;20586;-73
2022/01/05 04:13:15;;;;;;;15.40;14.75;;;6.70;88.40;;;;;;5033080;28;20288;-73
2022/01/05 04:15:42;;;;;;;15.20;14.55;;;6.80;87.60;;;;;;5033169;28;20618;-73
2022/01/05 04:18:09;;;;;;;16.63;15.93;;;6.80;87.70;;;;;;5033079;28;20217;-73
2022/01/05 04:20:36;;;;;;;17.00;16.25;;;6.70;87.80;;;;;;5032839;28;20228;-73
2022/01/05 04:23:04;;;;;;;15.63;14.93;;;6.80;87.70;;;;;;5032916;28;20565;-73
2022/01/05 04:25:33;;;;;;;15.48;14.77;;;6.80;87.60;;;;;;5032996;28;20244;-73
2022/01/05 04:28:00;;;;;;;15.60;14.90;;;6.80;87.50;;;;;;5032963;28;20208;-73
2022/01/05 04:30:27;;;;;;;17.20;16.40;;;6.70;87.70;;;;;;5032745;28;20292;-73
2022/01/05 04:32:54;;;;;;;16.60;15.90;;;6.80;87.80;;;;;;5032926;28;20670;-73
2022/01/05 04:35:21;;;;;;;15.95;15.15;;;6.70;87.40;;;;;;5032297;28;20202;-73
2022/01/05 04:37:48;;;;;;;15.18;14.50;;;6.70;87.60;;;;;;5032766;28;20705;-73
2022/01/05 04:40:16;;;;;;;17.45;16.65;;;6.80;87.90;;;;;;5032505;28;20308;-73
2022/01/05 04:42:43;;;;;;;15.50;14.70;;;6.80;88.10;;;;;;5033069;28;20199;-73
2022/01/05 04:45:13;;;;;;;16.00;15.30;;;6.80;88.50;;;;;;5032776;28;20209;-73
2022/01/05 04:47:40;;;;;;;15.70;15.00;;;6.80;89.20;;;;;;5032470;28;20205;-73
2022/01/05 04:50:08;;;;;;;15.52;14.82;;;6.80;89.60;;;;;;5032467;28;20213;-73
2022/01/05 04:52:35;;;;;;;15.45;14.75;;;6.80;90.10;;;;;;5032576;28;20200;-73
2022/01/05 04:55:02;;;;;;;16.38;15.68;;;6.80;90.00;;;;;;5032734;28;20201;-73
2022/01/05 04:57:30;;;;;;;15.50;14.80;;;6.60;90.30;;;;;;5032588;28;20227;-73
2022/01/05 04:59:58;;;;;;;15.65;15.00;;;6.60;90.50;;;;;;5032415;28;20775;-73
2022/01/05 05:02:25;;;;;;;16.33;15.63;;;6.60;90.40;;;;;;5032656;28;20284;-73
2022/01/05 05:04:52;;;;;;;13.75;13.15;;;6.60;90.20;;;;;;5032470;28;20197;-73
2022/01/05 05:07:19;;;;;;;15.90;15.20;;;6.60;90.60;;;;;;5032387;28;20214;-73
2022/01/05 05:09:46;;;;;;;17.25;16.45;;;6.50;91.00;;;;;;5032267;28;20217;-73
2022/01/05 05:12:13;;;;;;;16.70;16.00;;;6.50;91.90;;;;;;5032502;28;20201;-73
2022/01/05 05:14:43;;;;;;;14.15;13.57;;;6.50;91.10;;;;;;5032523;28;20202;-73
2022/01/05 05:17:09;;;;;;;15.52;14.82;;;6.60;90.60;;;;;;5032405;28;20227;-73
2022/01/05 05:19:36;;;;;;;16.65;15.75;;;6.70;90.20;;;;;;5032124;28;20221;-73
2022/01/05 05:22:04;;;;;;;17.13;16.33;;;6.60;90.20;;;;;;5032456;28;20204;-73
2022/01/05 05:24:31;;;;;;;15.35;14.65;;;6.50;90.40;;;;;;5032382;28;20209;-73
2022/01/05 05:26:57;;;;;;;17.23;16.42;;;6.60;90.20;;;;;;5032349;28;20276;-73
2022/01/05 05:29:24;;;;;;;18.25;17.35;;;6.40;89.20;;;;;;5032114;28;20248;-73
2022/01/05 05:31:53;;;;;;;19.40;18.40;;;6.00;88.40;;;;;;5032273;28;20208;-73
2022/01/05 05:34:19;;;;;;;21.10;20.00;;;5.30;85.70;;;;;;5032302;28;20292;-73
2022/01/05 05:36:46;;;;;;;23.67;22.38;;;4.60;87.80;;;;;;5032193;28;20690;-73
2022/01/05 05:39:13;;;;;;;23.38;22.20;;;4.20;90.20;;;;;;5032029;28;20243;-73
2022/01/05 05:41:40;;;;;;;22.58;21.38;;;4.10;90.10;;;;;;5032254;28;20274;-73
2022/01/05 05:44:07;;;;;;;23.38;22.17;;;3.80;91.20;;;;;;5032255;28;20349;-72
2022/01/05 05:46:34;;;;;;;23.73;22.52;;;3.60;91.80;;;;;;5035135;28;20198;-72
2022/01/05 05:49:06;;;;;;;333.00;47.67;;;3.30;92.30;;;;;;5035905;28;20220;-73
2022/01/05 05:51:33;;;;;;;21.15;20.05;;;3.30;92.80;;;;;;5035786;28;20212;-73
2022/01/05 05:53:59;;;;;;;21.00;19.90;;;3.00;93.00;;;;;;5035546;28;20208;-72
2022/01/05 05:56:27;;;;;;;21.63;20.42;;;3.10;93.70;;;;;;5035782;28;20211;-73
2022/01/05 05:58:53;;;;;;;22.75;21.55;;;3.20;93.90;;;;;;5035558;28;20221;-73
2022/01/05 06:01:20;;;;;;;20.05;19.05;;;3.30;93.40;;;;;;5035466;28;20232;-72
2022/01/05 06:03:47;;;;;;;20.70;19.70;;;3.30;93.10;;;;;;5035608;28;20203;-72
2022/01/05 06:06:15;;;;;;;21.67;20.55;;;3.40;95.50;;;;;;5035663;28;20654;-73
2022/01/05 06:08:42;;;;;;;20.25;19.05;;;3.40;93.80;;;;;;5035448;28;20232;-73
2022/01/05 06:11:09;;;;;;;19.60;18.48;;;3.50;94.10;;;;;;5035439;28;20720;-73
2022/01/05 06:13:36;;;;;;;19.95;18.85;;;3.60;93.40;;;;;;5035388;28;20291;-73
2022/01/05 06:16:03;;;;;;;21.00;19.88;;;3.70;93.10;;;;;;5035470;28;20207;-73
2022/01/05 06:18:30;;;;;;;19.75;18.75;;;3.80;92.20;;;;;;5035365;28;20225;-72
2022/01/05 06:20:57;;;;;;;19.63;18.73;;;3.80;92.30;;;;;;5035621;28;20563;-72
2022/01/05 06:23:25;;;;;;;18.73;17.83;;;3.90;92.20;;;;;;5035644;28;20706;-72
2022/01/05 06:25:52;;;;;;;20.20;19.20;;;3.90;92.30;;;;;;5035603;28;20539;-72
2022/01/05 06:28:19;;;;;;;18.77;17.63;;;4.00;91.40;;;;;;5035203;28;20219;-72
2022/01/05 06:30:46;;;;;;;15.95;15.23;;;4.00;90.80;;;;;;5035024;28;20224;-72
2022/01/05 06:33:13;;;;;;;19.70;18.80;;;4.00;90.30;;;;;;5035283;28;20197;-72
2022/01/05 06:35:40;;;;;;;18.15;17.20;;;4.00;90.20;;;;;;5035161;28;20204;-73
2022/01/05 06:38:07;;;;;;;17.42;16.63;;;4.10;90.20;;;;;;5034791;28;20694;-72
2022/01/05 06:40:36;;;;;;;14.23;13.63;;;4.10;89.30;;;;;;5034761;28;20221;-73
2022/01/05 06:43:03;;;;;;;18.38;17.52;;;3.90;89.80;;;;;;5034928;28;20224;-72
2022/01/05 06:45:30;;;;;;;19.70;18.80;;;3.80;90.00;;;;;;5034908;28;20197;-73
2022/01/05 06:47:58;;;;;;;19.38;18.38;;;3.80;89.40;;;;;;5034513;28;20595;-72
2022/01/05 06:50:25;;;;;;;19.27;18.27;;;3.80;88.80;;;;;;5034721;28;20218;-73
2022/01/05 06:52:55;;;;;;;18.00;17.10;;;3.90;89.60;;;;;;5034662;28;20193;-73
2022/01/05 06:55:22;;;;;;;18.17;17.30;;;4.10;89.70;;;;;;5034668;28;20201;-73
2022/01/05 06:57:51;;;;;;;19.20;18.35;;;4.00;89.30;;;;;;5034048;28;20221;-73
2022/01/05 07:00:19;;;;;;;18.92;17.92;;;4.00;89.60;;;;;;5034326;28;20224;-73
2022/01/05 07:02:45;;;;;;;19.88;18.70;;;4.00;89.90;;;;;;5034606;28;20198;-73
2022/01/05 07:05:12;;;;;;;18.67;17.30;;;4.10;90.90;;;;;;5034473;28;20231;-72
2022/01/05 07:07:39;;;;;;;19.98;19.08;;;4.00;92.30;;;;;;5034403;28;20289;-73
2022/01/05 07:10:08;;;;;;;18.85;17.95;;;4.10;91.60;;;;;;5034236;28;20213;-73
2022/01/05 07:12:36;;;;;;;143.45;27.38;;;4.10;92.70;;;;;;5034397;28;20193;-73
2022/01/05 07:15:06;;;;;;;17.70;16.90;;;4.30;91.70;;;;;;5034508;28;20288;-73
2022/01/05 07:17:33;;;;;;;19.30;18.40;;;4.40;92.10;;;;;;5034253;28;20593;-73
2022/01/05 07:20:00;;;;;;;18.08;17.13;;;4.20;89.90;;;;;;5034111;28;20213;-73
2022/01/05 07:22:27;;;;;;;17.95;16.92;;;4.20;90.30;;;;;;5034096;28;20696;-73
2022/01/05 07:24:56;;;;;;;18.00;17.20;;;4.30;90.30;;;;;;5034152;28;20193;-72
2022/01/05 07:27:23;;;;;;;19.40;18.50;;;4.10;90.40;;;;;;5034274;28;20251;-72
2022/01/05 07:29:50;;;;;;;18.95;18.05;;;4.00;90.10;;;;;;5034076;28;20606;-72
2022/01/05 07:32:18;;;;;;;18.27;17.48;;;3.90;88.10;;;;;;5034120;28;20207;-72
2022/01/05 07:34:45;;;;;;;19.02;18.10;;;3.80;89.00;;;;;;5033886;28;20280;-72
2022/01/05 07:37:12;;;;;;;19.27;18.38;;;3.90;89.40;;;;;;5033927;28;20205;-72
2022/01/05 07:39:39;;;;;;;15.13;14.43;;;4.00;88.10;;;;;;5033878;28;20255;-72
2022/01/05 07:42:08;;;;;;;19.17;18.17;;;4.00;88.30;;;;;;5034068;28;20197;-72
2022/01/05 07:44:34;;;;;;;18.73;17.65;;;3.90;85.50;;;;;;5033970;28;20199;-72
2022/01/05 07:47:01;;;;;;;21.08;19.98;;;3.90;87.10;;;;;;5033786;28;20198;-73
2022/01/05 07:49:30;;;;;;;20.50;19.50;;;4.00;85.30;;;;;;5033486;28;20576;-73
2022/01/05 07:51:57;;;;;;;20.90;19.52;;;4.00;84.00;;;;;;5033883;28;20293;-72
2022/01/05 07:54:23;;;;;;;20.13;19.02;;;3.90;84.60;;;;;;5033733;28;20203;-72
2022/01/05 07:56:50;;;;;;;21.67;20.48;;;4.00;84.20;;;;;;5033568;28;20289;-73
2022/01/05 07:59:17;;;;;;;19.85;18.67;;;3.80;84.10;;;;;;5033219;28;20705;-73
2022/01/05 08:01:44;;;;;;;22.15;20.83;;;3.90;84.40;;;;;;5033469;28;20220;-73
2022/01/05 08:04:11;;;;;;;21.83;20.60;;;3.80;83.80;;;;;;5033366;28;20726;-72
2022/01/05 08:06:39;;;;;;;20.38;19.10;;;3.80;84.90;;;;;;5033312;28;20235;-73
2022/01/05 08:09:06;;;;;;;19.95;18.85;;;3.80;83.90;;;;;;5032600;28;20219;-73
2022/01/05 08:11:33;;;;;;;19.77;18.45;;;3.90;84.10;;;;;;5033098;28;20284;-72
2022/01/05 08:14:00;;;;;;;20.90;19.60;;;3.90;85.00;;;;;;5033257;28;20205;-73
2022/01/05 08:16:27;;;;;;;22.00;20.65;;;3.80;84.20;;;;;;5033108;28;20288;-73
2022/01/05 08:18:54;;;;;;;23.27;21.35;;;3.70;83.70;;;;;;5032939;28;20236;-73
2022/01/05 08:21:22;;;;;;;20.50;19.23;;;3.70;84.20;;;;;;5032952;28;20197;-73
2022/01/05 08:23:51;;;;;;;21.52;19.98;;;3.60;83.90;;;;;;5032971;28;20197;-73
2022/01/05 08:26:18;;;;;;;20.10;18.88;;;3.60;84.20;;;;;;5032879;28;20676;-73
2022/01/05 08:28:45;;;;;;;20.90;19.50;;;3.50;82.20;;;;;;5033013;28;20193;-73
2022/01/05 08:31:12;;;;;;;21.48;20.17;;;3.50;83.50;;;;;;5032775;28;20288;-73
2022/01/05 08:33:39;;;;;;;22.00;20.90;;;3.70;82.90;;;;;;5032829;28;20222;-73
2022/01/05 08:36:06;;;;;;;20.67;19.65;;;3.60;82.90;;;;;;5032852;28;20284;-73
2022/01/05 08:38:35;;;;;;;22.23;20.63;;;3.70;82.30;;;;;;5032795;28;20221;-73
2022/01/05 08:41:03;;;;;;;21.15;19.90;;;3.60;81.70;;;;;;5032746;28;20201;-73
2022/01/05 08:43:31;;;;;;;22.55;21.30;;;3.60;82.60;;;;;;5032787;28;20694;-73
2022/01/05 08:45:58;;;;;;;21.63;20.00;;;3.60;81.70;;;;;;5032732;28;20722;-73
2022/01/05 08:48:25;;;;;;;21.10;19.85;;;3.60;81.40;;;;;;5032608;28;20204;-73
2022/01/05 08:50:52;;;;;;;22.38;21.02;;;3.40;80.60;;;;;;5032636;28;20221;-73
2022/01/05 08:53:19;;;;;;;23.35;21.83;;;3.30;81.50;;;;;;5032536;28;20288;-73
2022/01/05 08:55:49;;;;;;;21.45;19.98;;;3.30;82.20;;;;;;5032861;28;20207;-73
2022/01/05 08:58:20;;;;;;;20.70;19.50;;;3.20;80.50;;;;;;5032559;28;20232;-73
2022/01/05 09:00:48;;;;;;;22.15;20.88;;;3.00;80.60;;;;;;5032629;28;20217;-73
2022/01/05 09:03:15;;;;;;;23.40;21.92;;;3.10;81.10;;;;;;5032602;28;20666;-73
2022/01/05 09:05:43;;;;;;;21.70;20.30;;;3.10;80.20;;;;;;5032487;28;20200;-73
2022/01/05 09:08:10;;;;;;;23.35;21.70;;;3.20;80.90;;;;;;5032570;28;20293;-73
2022/01/05 09:10:37;;;;;;;21.90;20.70;;;3.30;79.40;;;;;;5032349;28;20217;-73
2022/01/05 09:13:04;;;;;;;23.77;22.23;;;3.30;78.90;;;;;;5032759;28;20204;-72
2022/01/05 09:15:34;;;;;;;22.58;20.95;;;3.50;79.40;;;;;;5032726;28;20288;-73
2022/01/05 09:18:01;;;;;;;23.05;21.63;;;3.60;79.30;;;;;;5032548;28;20293;-73
2022/01/05 09:20:28;;;;;;;23.33;22.13;;;3.70;79.20;;;;;;5033945;28;20220;-72
2022/01/05 09:22:55;;;;;;;24.90;23.05;;;4.00;77.00;;;;;;5036382;28;20205;-73
2022/01/05 09:25:23;;;;;;;23.38;21.90;;;4.10;77.60;;;;;;5036455;28;20201;-73
2022/01/05 09:27:51;;;;;;;22.90;21.40;;;4.20;77.10;;;;;;5036533;28;20204;-73
2022/01/05 09:30:20;;;;;;;23.73;22.42;;;4.00;75.10;;;;;;5036231;28;20271;-73
2022/01/05 09:32:48;;;;;;;23.23;21.83;;;4.00;75.90;;;;;;5036441;28;20201;-73
2022/01/05 09:35:18;;;;;;;21.98;20.65;;;4.10;76.40;;;;;;5036185;28;20197;-73
2022/01/05 09:37:54;;;;;;;21.48;20.08;;;4.20;76.20;;;;;;5036149;28;20224;-73
2022/01/05 09:43:08;;;;;;;22.65;21.25;;;4.00;74.90;;;;;;5036335;28;20189;-73
2022/01/05 09:45:38;;;;;;;22.35;21.25;;;3.60;75.60;;;;;;5036000;28;20193;-73
2022/01/05 09:48:38;;;;;;;22.75;21.25;;;3.50;77.00;;;;;;5035886;28;20201;-73
2022/01/05 09:51:09;;;;;;;22.02;20.73;;;3.80;77.90;;;;;;5024403;28;20197;-73
2022/01/05 09:53:37;;;;;;;23.40;22.05;;;4.00;77.00;;;;;;5035630;28;20197;-73
2022/01/05 09:56:06;;;;;;;21.95;20.65;;;4.10;76.50;;;;;;5035747;28;20551;-73
2022/01/05 09:58:35;;;;;;;23.02;21.52;;;4.30;75.50;;;;;;5035383;28;20729;-73
2022/01/05 10:01:02;;;;;;;23.10;21.60;;;3.90;74.30;;;;;;5035458;28;20255;-73
2022/01/05 10:03:29;;;;;;;24.35;23.13;;;3.80;75.50;;;;;;5035660;28;20284;-73
2022/01/05 10:06:00;;;;;;;22.55;20.85;;;3.70;75.00;;;;;;5035540;28;20227;-73
2022/01/05 10:08:27;;;;;;;24.35;22.88;;;3.60;75.70;;;;;;5035556;28;20201;-73
2022/01/05 10:10:54;;;;;;;23.42;21.63;;;3.80;75.00;;;;;;5035388;28;20308;-73
2022/01/05 10:13:21;;;;;;;23.55;22.25;;;3.80;73.80;;;;;;5035263;28;20201;-73
2022/01/05 10:15:48;;;;;;;23.73;21.90;;;3.70;73.70;;;;;;5035349;28;20200;-73
2022/01/05 10:18:17;;;;;;;23.60;22.08;;;3.70;72.40;;;;;;5035171;28;20232;-73
2022/01/05 10:20:57;;;;;;;24.08;22.48;;;3.80;74.50;;;;;;5035221;28;20224;-73
2022/01/05 10:23:41;;;;;;;22.20;20.83;;;3.80;73.30;;;;;;5035166;28;20198;-73
2022/01/05 10:26:22;;;;;;;23.85;22.05;;;3.80;73.90;;;;;;5035195;28;20251;-73
2022/01/05 10:28:49;;;;;;;22.70;21.23;;;3.90;74.00;;;;;;5035061;28;20288;-73
2022/01/05 10:31:19;;;;;;;24.75;22.95;;;4.00;72.30;;;;;;5034406;28;20288;-72
2022/01/05 10:33:46;;;;;;;24.25;22.30;;;3.90;71.70;;;;;;5034786;28;20280;-73
2022/01/05 10:36:14;;;;;;;26.08;24.05;;;4.00;71.80;;;;;;5034896;28;20292;-73
2022/01/05 10:38:55;;;;;;;24.35;22.00;;;3.90;70.20;;;;;;5034799;28;20221;-73
2022/01/05 10:41:24;;;;;;;25.48;23.70;;;3.90;69.60;;;;;;5034955;28;20197;-73
2022/01/05 10:44:11;;;;;;;23.48;21.98;;;3.80;70.30;;;;;;5034917;28;20675;-73
2022/01/05 10:46:39;;;;;;;24.45;22.65;;;3.90;69.30;;;;;;5034547;28;20677;-73
2022/01/05 10:49:07;;;;;;;24.20;22.77;;;3.80;69.20;;;;;;5034643;28;20220;-73
2022/01/05 10:51:36;;;;;;;21.33;20.10;;;3.80;70.40;;;;;;5034609;28;20741;-73
2022/01/05 10:54:14;;;;;;;24.42;22.80;;;3.60;70.50;;;;;;5034557;28;20655;-73
2022/01/05 10:56:41;;;;;;;24.02;22.45;;;3.60;70.80;;;;;;5034688;28;20197;-73
2022/01/05 10:59:08;;;;;;;21.23;20.20;;;3.90;70.70;;;;;;5034259;28;20235;-73
2022/01/05 11:01:35;;;;;;;25.65;23.60;;;4.20;70.40;;;;;;5034500;28;20224;-73
2022/01/05 11:04:16;;;;;;;24.23;22.50;;;4.30;69.70;;;;;;5034520;28;20197;-73
2022/01/05 11:06:56;;;;;;;23.30;22.05;;;4.50;68.60;;;;;;5034391;28;20217;-73
2022/01/05 11:09:23;;;;;;;22.85;21.35;;;4.40;68.20;;;;;;5034218;28;20220;-73
2022/01/05 11:11:51;;;;;;;24.15;22.67;;;4.40;68.20;;;;;;5034291;28;20201;-73
2022/01/05 11:14:19;;;;;;;23.25;21.73;;;4.50;68.80;;;;;;5034455;28;20200;-73
2022/01/05 11:16:49;;;;;;;22.90;21.35;;;4.60;66.90;;;;;;5034379;28;20199;-73
2022/01/05 11:19:19;;;;;;;23.27;21.73;;;4.50;66.90;;;;;;5033894;28;20221;-73
2022/01/05 11:22:06;;;;;;;23.67;21.98;;;4.60;67.00;;;;;;5034364;28;20284;-73
2022/01/05 11:24:35;;;;;;;23.50;21.90;;;4.70;66.80;;;;;;5034103;28;20280;-73
2022/01/05 11:27:04;;;;;;;23.58;22.08;;;4.80;67.60;;;;;;5034049;28;20284;-73
2022/01/05 11:29:31;;;;;;;23.58;21.73;;;4.90;65.20;;;;;;5033918;28;20217;-73
2022/01/05 11:31:58;;;;;;;21.90;20.52;;;4.70;65.60;;;;;;5033947;28;20193;-73
2022/01/05 11:34:28;;;;;;;22.77;21.17;;;4.70;66.60;;;;;;5033912;28;20194;-73
2022/01/05 11:36:58;;;;;;;23.58;21.30;;;4.80;66.30;;;;;;5033945;28;20205;-73
2022/01/05 11:39:26;;;;;;;23.88;22.27;;;4.90;67.00;;;;;;5033521;28;20224;-73
2022/01/05 11:41:54;;;;;;;23.60;21.80;;;5.00;65.80;;;;;;5033730;28;20204;-73
2022/01/05 11:44:21;;;;;;;24.00;22.10;;;5.00;66.20;;;;;;5033610;28;20197;-73
2022/01/05 11:46:51;;;;;;;25.55;23.73;;;5.10;65.50;;;;;;5033612;28;20284;-73
2022/01/05 11:49:26;;;;;;;24.50;22.95;;;5.10;66.00;;;;;;5033357;28;20258;-73
2022/01/05 11:51:55;;;;;;;23.63;21.77;;;5.10;65.90;;;;;;5033631;28;20240;-73
2022/01/05 11:54:25;;;;;;;25.88;23.70;;;5.00;65.50;;;;;;5033482;28;20682;-73
2022/01/05 11:56:54;;;;;;;24.70;23.00;;;4.90;66.60;;;;;;5033467;28;20189;-73
2022/01/05 11:59:33;;;;;;;22.45;21.05;;;4.80;66.50;;;;;;5032956;28;20304;-73
2022/01/05 12:02:12;;;;;;;24.80;23.30;;;4.70;65.80;;;;;;5033490;28;20201;-73
2022/01/05 12:05:00;;;;;;;23.90;22.23;;;4.70;66.70;;;;;;5033620;28;20197;-73
2022/01/05 12:07:42;;;;;;;25.75;23.70;;;4.70;66.90;;;;;;5033604;28;20208;-73
2022/01/05 12:10:16;;;;;;;23.75;22.05;;;4.90;66.90;;;;;;5033174;28;20220;-73
2022/01/05 12:12:58;;;;;;;24.00;22.50;;;4.90;66.00;;;;;;5033314;28;20193;-73
2022/01/05 12:15:50;;;;;;;24.73;23.20;;;5.00;66.60;;;;;;5033375;28;20201;-73
2022/01/05 12:18:25;;;;;;;24.38;22.48;;;4.70;67.30;;;;;;5033162;28;20303;-73
2022/01/05 12:20:53;;;;;;;24.85;23.05;;;4.70;67.80;;;;;;5032879;28;20320;-73
2022/01/05 12:23:24;;;;;;;23.95;22.42;;;5.00;67.90;;;;;;5033063;28;20285;-73
2022/01/05 12:26:15;;;;;;;23.83;21.92;;;5.30;66.60;;;;;;5033061;28;20270;-73
2022/01/05 12:28:54;;;;;;;24.15;22.55;;;5.40;65.60;;;;;;5032905;28;20200;-73
2022/01/05 12:31:55;;;;;;;24.27;22.55;;;5.50;65.40;;;;;;5032841;28;20284;-73
2022/01/05 12:34:52;;;;;;;23.30;21.90;;;5.40;64.40;;;;;;5033056;28;20201;-73
2022/01/05 12:37:37;;;;;;;24.75;22.77;;;5.20;65.20;;;;;;5032872;28;20231;-73
2022/01/05 12:40:23;;;;;;;23.48;21.92;;;5.20;65.60;;;;;;5032505;28;20221;-73
2022/01/05 12:43:34;;;;;;;23.75;22.50;;;5.10;64.80;;;;;;5032942;28;20198;-73
2022/01/05 12:46:06;;;;;;;24.40;22.95;;;5.10;64.30;;;;;;5032894;28;20205;-73
2022/01/05 12:49:19;;;;;;;24.95;22.65;;;4.80;64.90;;;;;;5032248;28;20232;-73